Time;durP1;ratioP1;P1;durP2;ratioP2;P2;SDS_P1;SDS_P2;PMS_P1;PMS_P2;Temp;Humidity;BMP_temperature;BMP_pressure;BME280_temperature;BME280_humidity;BME280_pressure;Samples;Min_cycle;Max_cycle;Signal;HPM_P1;HPM_P2
2024/02/10 00:02:34;;;;;;;18.40;6.10;;;;;;;;;;4990181;28;20053;-74
2024/02/10 00:05:39;;;;;;;15.88;5.32;;;;;;;;;;4991360;28;20026;-75
2024/02/10 00:08:43;;;;;;;12.07;4.20;;;;;;;;;;4990865;28;20038;-76
2024/02/10 00:11:48;;;;;;;15.52;5.28;;;;;;;;;;4991215;28;20038;-76
2024/02/10 00:14:56;;;;;;;14.35;4.60;;;18.40;88.30;;;;;;4990497;28;20047;-75
2024/02/10 00:18:00;;;;;;;14.15;4.75;;;;;;;;;;4990908;28;20049;-74
2024/02/10 00:21:05;;;;;;;22.00;5.32;;;;;;;;;;4990963;28;20046;-74
2024/02/10 00:24:11;;;;;;;20.88;4.43;;;;;;;;;;4990927;28;20030;-75
2024/02/10 00:27:16;;;;;;;18.63;3.90;;;;;;;;;;4991674;28;20083;-75
2024/02/10 00:30:23;;;;;;;18.15;5.82;;;;;;;;;;4994487;28;20406;-75
2024/02/10 00:33:26;;;;;;;20.02;5.82;;;;;;;;;;4993916;28;20046;-74
2024/02/10 00:36:31;;;;;;;13.50;5.22;;;;;;;;;;4994400;28;20046;-74
2024/02/10 00:39:35;;;;;;;15.85;4.70;;;;;;;;;;4993574;28;20045;-74
2024/02/10 00:42:39;;;;;;;21.85;5.57;;;;;;;;;;4993582;28;20145;-74
2024/02/10 00:45:46;;;;;;;13.63;4.25;;;;;;;;;;4994143;28;20431;-74
2024/02/10 00:48:53;;;;;;;20.00;4.70;;;;;;;;;;4994624;28;20049;-74
2024/02/10 00:51:57;;;;;;;19.60;3.78;;;;;;;;;;4971770;28;20045;-74
2024/02/10 00:55:01;;;;;;;17.98;5.10;;;;;;;;;;4994524;28;20046;-74
2024/02/10 00:58:06;;;;;;;15.52;4.78;;;;;;;;;;4993984;28;20038;-74
2024/02/10 01:01:12;;;;;;;11.40;3.85;;;16.10;88.40;;;;;;4993359;28;20407;-75
2024/02/10 01:04:17;;;;;;;15.68;4.35;;;;;;;;;;4993028;28;20513;-75
2024/02/10 01:07:23;;;;;;;23.90;4.68;;;;;;;;;;4993900;28;20049;-74
2024/02/10 01:10:30;;;;;;;18.20;4.13;;;;;;;;;;4994026;28;20238;-74
2024/02/10 01:13:34;;;;;;;18.20;4.70;;;;;;;;;;4994077;28;20045;-74
2024/02/10 01:16:43;;;;;;;14.32;3.83;;;16.50;88.70;;;;;;4993736;28;20042;-74
2024/02/10 01:19:50;;;;;;;15.80;4.15;;;;;;;;;;4994130;28;20041;-74
2024/02/10 01:22:57;;;;;;;23.80;4.13;;;;;;;;;;4993639;28;20134;-73
2024/02/10 01:26:01;;;;;;;27.95;4.22;;;;;;;;;;4992803;28;20046;-73
2024/02/10 01:29:09;;;;;;;27.40;4.85;;;;;;;;;;4993499;28;20038;-73
2024/02/10 01:32:19;;;;;;;43.80;5.00;;;16.90;84.00;;;;;;4993857;28;20042;-75
2024/02/10 01:35:23;;;;;;;19.27;4.13;;;;;;;;;;4992982;28;20045;-75
2024/02/10 01:38:27;;;;;;;35.92;4.32;;;;;;;;;;4993587;28;20043;-78
2024/02/10 01:41:32;;;;;;;27.50;4.22;;;;;;;;;;4993460;28;20053;-77
2024/02/10 01:44:36;;;;;;;25.48;3.88;;;;;;;;;;4993470;28;20049;-77
2024/02/10 01:47:45;;;;;;;34.80;4.57;;;16.50;82.60;;;;;;4993200;28;20051;-78
2024/02/10 01:50:49;;;;;;;20.40;4.30;;;;;;;;;;4993220;28;20041;-79
2024/02/10 01:53:54;;;;;;;26.50;4.05;;;;;;;;;;4992167;28;20042;-79
2024/02/10 01:56:59;;;;;;;33.67;4.05;;;;;;;;;;4993019;28;20030;-76
2024/02/10 02:00:05;;;;;;;27.88;4.95;;;15.70;82.80;;;;;;4992981;28;20034;-76
2024/02/10 02:03:10;;;;;;;37.25;4.65;;;;;;;;;;4992313;28;20061;-74
2024/02/10 02:06:17;;;;;;;27.27;3.88;;;17.20;84.40;;;;;;4992105;28;20041;-74
2024/02/10 02:09:21;;;;;;;27.52;4.55;;;;;;;;;;4992063;28;20248;-74
2024/02/10 02:12:25;;;;;;;38.08;5.30;;;;;;;;;;4992782;28;20043;-74
2024/02/10 02:15:30;;;;;;;27.52;4.35;;;;;;;;;;4992569;28;20046;-74
2024/02/10 02:18:34;;;;;;;41.72;5.22;;;;;;;;;;4992560;28;20506;-75
2024/02/10 02:21:39;;;;;;;32.05;4.97;;;;;;;;;;4991763;28;20042;-75
2024/02/10 02:24:43;;;;;;;29.20;4.18;;;;;;;;;;4991639;28;20038;-75
2024/02/10 02:27:48;;;;;;;36.72;5.38;;;;;;;;;;4992647;28;20039;-75
2024/02/10 02:30:52;;;;;;;43.35;5.78;;;;;;;;;;4992219;28;20038;-74
2024/02/10 02:33:59;;;;;;;50.70;5.55;;;;;;;;;;4992272;28;20515;-75
2024/02/10 02:37:03;;;;;;;49.30;6.50;;;;;;;;;;4992347;28;20394;-77
2024/02/10 02:40:12;;;;;;;45.53;6.32;;;14.60;83.50;;;;;;4991575;28;20155;-75
2024/02/10 02:43:17;;;;;;;36.08;5.72;;;;;;;;;;4992341;28;20521;-76
2024/02/10 02:46:23;;;;;;;53.00;5.75;;;;;;;;;;4992031;28;20041;-75
2024/02/10 02:49:27;;;;;;;47.38;6.60;;;;;;;;;;4990844;28;20503;-76
2024/02/10 02:52:32;;;;;;;44.40;6.18;;;;;;;;;;4991142;28;20035;-76
2024/02/10 02:55:36;;;;;;;55.85;6.18;;;16.90;85.00;;;;;;4992197;28;20038;-76
2024/02/10 02:58:41;;;;;;;48.00;7.53;;;;;;;;;;4991257;28;20114;-75
2024/02/10 03:01:51;;;;;;;50.80;7.07;;;17.10;85.80;;;;;;4991950;28;20046;-76
2024/02/10 03:04:55;;;;;;;51.30;6.18;;;;;;;;;;4992019;28;20553;-76
2024/02/10 03:07:59;;;;;;;54.03;7.10;;;;;;;;;;4991222;28;20045;-76
2024/02/10 03:11:05;;;;;;;51.92;7.03;;;;;;;;;;4990983;28;20034;-76
2024/02/10 03:14:08;;;;;;;53.17;7.57;;;;;;;;;;4991703;28;20515;-76
2024/02/10 03:17:14;;;;;;;55.90;8.13;;;;;;;;;;4990616;28;20050;-76
2024/02/10 03:20:23;;;;;;;63.72;7.68;;;;;;;;;;4991818;28;20164;-77
2024/02/10 03:23:27;;;;;;;44.63;6.82;;;;;;;;;;4990844;28;20058;-77
2024/02/10 03:26:35;;;;;;;69.78;9.55;;;17.50;86.90;;;;;;4991690;28;20038;-76
2024/02/10 03:29:39;;;;;;;59.88;8.05;;;;;;;;;;4991600;28;20049;-74
2024/02/10 03:32:44;;;;;;;57.55;8.73;;;;;;;;;;4991768;28;20046;-74
2024/02/10 03:35:48;;;;;;;47.33;9.30;;;;;;;;;;4990806;28;20394;-74
2024/02/10 03:38:54;;;;;;;56.05;8.75;;;16.30;85.60;;;;;;4990806;28;20047;-74
2024/02/10 03:41:58;;;;;;;58.15;9.18;;;;;;;;;;4991475;28;20517;-74
2024/02/10 03:45:03;;;;;;;66.20;7.68;;;;;;;;;;4991830;28;20042;-74
2024/02/10 03:48:08;;;;;;;65.15;8.15;;;;;;;;;;4991599;28;20398;-73
2024/02/10 03:51:13;;;;;;;77.70;9.82;;;;;;;;;;4990539;28;20030;-73
2024/02/10 03:54:17;;;;;;;61.47;8.18;;;;;;;;;;4991240;28;20042;-74
2024/02/10 03:57:21;;;;;;;63.05;8.00;;;;;;;;;;4990630;28;20145;-74
2024/02/10 04:00:28;;;;;;;72.90;9.18;;;19.60;86.50;;;;;;4990914;28;20050;-74
2024/02/10 04:03:34;;;;;;;61.58;8.90;;;;;;;;;;4995256;28;20406;-74
2024/02/10 04:06:39;;;;;;;66.95;11.00;;;;;;;;;;4994859;28;20026;-74
2024/02/10 04:09:44;;;;;;;65.50;9.52;;;;;;;;;;4995118;28;20126;-74
2024/02/10 04:12:48;;;;;;;65.57;10.20;;;;;;;;;;4995049;28;20049;-74
2024/02/10 04:15:55;;;;;;;72.78;11.88;;;;;;;;;;4994720;28;20042;-74
2024/02/10 04:19:01;;;;;;;73.45;9.25;;;;;;;;;;4995035;28;20042;-74
2024/02/10 04:22:07;;;;;;;75.20;9.98;;;;;;;;;;4994565;28;20071;-74
2024/02/10 04:25:14;;;;;;;70.47;10.05;;;17.50;87.60;;;;;;4994980;28;20042;-74
2024/02/10 04:28:18;;;;;;;76.13;10.82;;;;;;;;;;4994895;28;20045;-74
2024/02/10 04:31:23;;;;;;;73.30;10.23;;;;;;;;;;4994153;28;20525;-74
2024/02/10 04:34:30;;;;;;;89.30;10.07;;;;;;;;;;4993891;28;20045;-74
2024/02/10 04:37:35;;;;;;;74.15;10.10;;;;;;;;;;4994780;28;20046;-74
2024/02/10 04:40:40;;;;;;;63.35;10.50;;;;;;;;;;4994293;28;20101;-74
2024/02/10 04:43:44;;;;;;;90.55;10.63;;;;;;;;;;4993876;28;20053;-75
2024/02/10 04:46:49;;;;;;;48.33;7.82;;;;;;;;;;4994123;28;20041;-74
2024/02/10 04:49:55;;;;;;;69.22;9.25;;;;;;;;;;4993384;28;20039;-73
2024/02/10 04:53:00;;;;;;;62.88;8.93;;;16.50;85.30;;;;;;4994418;28;20034;-73
2024/02/10 04:56:04;;;;;;;67.82;10.27;;;;;;;;;;4994062;28;20049;-73
2024/02/10 04:59:08;;;;;;;99.13;10.27;;;;;;;;;;4994348;28;20045;-73
2024/02/10 05:02:12;;;;;;;89.10;11.30;;;;;;;;;;4993033;28;20057;-72
2024/02/10 05:05:17;;;;;;;147.30;14.15;;;;;;;;;;4993245;28;20049;-73
2024/02/10 05:08:21;;;;;;;102.50;12.90;;;;;;;;;;4994256;28;20505;-72
2024/02/10 05:11:26;;;;;;;93.75;11.60;;;;;;;;;;4993991;28;20041;-73
2024/02/10 05:14:32;;;;;;;91.85;12.73;;;;;;;;;;4993914;28;20050;-73
2024/02/10 05:17:42;;;;;;;83.57;11.88;;;18.10;89.30;;;;;;4992665;28;20120;-73
2024/02/10 05:20:48;;;;;;;109.47;12.27;;;;;;;;;;4993541;28;20110;-73
2024/02/10 05:23:52;;;;;;;92.60;13.25;;;;;;;;;;4993783;28;20058;-72
2024/02/10 05:26:57;;;;;;;99.47;13.27;;;;;;;;;;4993665;28;20041;-73
2024/02/10 05:30:02;;;;;;;90.82;13.55;;;;;;;;;;4993578;28;20663;-72
2024/02/10 05:33:07;;;;;;;92.10;12.02;;;;;;;;;;4992781;28;20045;-72
2024/02/10 05:36:11;;;;;;;100.05;12.27;;;;;;;;;;4993333;28;20069;-72
2024/02/10 05:39:18;;;;;;;100.57;13.55;;;;;;;;;;4992660;28;20045;-72
2024/02/10 05:42:22;;;;;;;98.43;13.15;;;;;;;;;;4993188;28;20049;-73
2024/02/10 05:45:28;;;;;;;88.07;13.52;;;;;;;;;;4993283;28;20053;-73
2024/02/10 05:48:32;;;;;;;106.32;13.35;;;;;;;;;;4981493;28;20420;-73
2024/02/10 05:51:39;;;;;;;102.18;13.05;;;14.70;89.50;;;;;;4992401;28;20045;-73
2024/02/10 05:54:43;;;;;;;88.85;12.98;;;;;;;;;;4993327;28;20045;-74
2024/02/10 05:57:48;;;;;;;81.53;10.75;;;;;;;;;;4992314;28;20054;-72
2024/02/10 06:00:52;;;;;;;84.15;11.00;;;;;;;;;;4993313;28;20033;-74
2024/02/10 06:03:57;;;;;;;83.22;10.45;;;;;;;;;;4993436;28;20061;-72
2024/02/10 06:07:07;;;;;;;84.90;10.32;;;;;;;;;;4992984;28;20106;-72
2024/02/10 06:10:12;;;;;;;59.42;7.95;;;16.90;90.10;;;;;;4993181;28;20398;-73
2024/02/10 06:13:17;;;;;;;59.92;7.68;;;;;;;;;;4992872;28;20045;-73
2024/02/10 06:16:21;;;;;;;49.28;6.28;;;;;;;;;;4992701;28;20042;-73
2024/02/10 06:19:26;;;;;;;60.78;8.15;;;;;;;;;;4992604;28;20034;-73
2024/02/10 06:22:30;;;;;;;52.55;7.75;;;;;;;;;;4991900;28;20054;-73
2024/02/10 06:25:34;;;;;;;50.78;8.05;;;;;;;;;;4980740;28;20045;-73
2024/02/10 06:28:39;;;;;;;47.22;7.32;;;;;;;;;;4992814;28;20042;-73
2024/02/10 06:31:46;;;;;;;29.80;5.50;;;;;;;;;;4991870;28;20435;-73
2024/02/10 06:34:51;;;;;;;45.22;6.50;;;;;;;;;;4992544;28;20038;-73
2024/02/10 06:37:57;;;;;;;42.05;6.32;;;;;;;;;;4992304;28;20038;-73
2024/02/10 06:41:02;;;;;;;46.40;6.15;;;;;;;;;;4992174;28;20030;-72
2024/02/10 06:44:07;;;;;;;51.63;7.70;;;;;;;;;;4992343;28;20049;-72
2024/02/10 06:47:11;;;;;;;56.88;8.45;;;;;;;;;;4991234;28;20038;-73
2024/02/10 06:50:23;;;;;;;47.33;8.18;;;;;;;;;;4992269;28;20045;-73
2024/02/10 06:53:28;;;;;;;46.30;6.63;;;;;;;;;;4992113;28;20041;-75
2024/02/10 06:56:32;;;;;;;47.88;6.88;;;;;;;;;;4991158;28;20042;-73
2024/02/10 06:59:38;;;;;;;61.63;8.38;;;;;;;;;;4991280;28;20042;-72
2024/02/10 07:02:46;;;;;;;44.83;6.95;;;16.90;93.20;;;;;;4991671;28;20046;-72
2024/02/10 07:05:52;;;;;;;55.63;7.35;;;;;;;;;;4991688;28;20054;-73
2024/02/10 07:09:03;;;;;;;54.03;8.23;;;;;;;;;;4991573;28;20548;-75
2024/02/10 07:12:07;;;;;;;47.42;8.13;;;;;;;;;;4991617;28;20409;-75
2024/02/10 07:15:19;;;;;;;43.20;7.95;;;16.30;93.50;;;;;;4991727;28;20034;-73
2024/02/10 07:18:23;;;;;;;46.45;8.77;;;;;;;;;;4991124;28;20053;-75
2024/02/10 07:21:27;;;;;;;44.92;8.13;;;;;;;;;;4979734;28;20046;-74
2024/02/10 07:24:33;;;;;;;47.05;7.70;;;;;;;;;;4991022;28;20038;-74
2024/02/10 07:27:38;;;;;;;31.02;5.10;;;;;;;;;;4991695;28;20042;-74
2024/02/10 07:30:46;;;;;;;39.38;6.13;;;;;;;;;;4990944;28;20042;-73
2024/02/10 07:33:50;;;;;;;36.65;5.40;;;;;;;;;;4991600;28;20046;-73
2024/02/10 07:36:55;;;;;;;31.60;5.03;;;;;;;;;;4990892;28;20129;-74
2024/02/10 07:40:00;;;;;;;33.92;5.95;;;;;;;;;;4991771;28;20417;-77
2024/02/10 07:43:05;;;;;;;32.55;5.47;;;;;;;;;;4991271;28;20051;-72
2024/02/10 07:46:16;;;;;;;30.10;4.38;;;16.20;93.90;;;;;;4991544;28;20034;-73
2024/02/10 07:49:21;;;;;;;25.55;4.45;;;;;;;;;;4991501;28;20407;-73
2024/02/10 07:52:30;;;;;;;29.55;5.25;;;15.00;92.90;;;;;;4991377;28;20038;-73
2024/02/10 07:55:35;;;;;;;39.17;4.90;;;;;;;;;;4991224;28;20049;-71
2024/02/10 07:58:40;;;;;;;31.33;4.82;;;;;;;;;;4991358;28;20359;-72
2024/02/10 08:01:44;;;;;;;24.98;3.95;;;;;;;;;;4991228;28;20042;-74
2024/02/10 08:04:51;;;;;;;31.25;5.10;;;;;;;;;;4991325;28;20053;-73
2024/02/10 08:08:00;;;;;;;38.08;5.47;;;;;;;;;;4990526;28;20065;-71
2024/02/10 08:11:04;;;;;;;33.67;6.20;;;;;;;;;;4990988;28;20038;-71
2024/02/10 08:14:09;;;;;;;25.83;5.57;;;;;;;;;;4990804;28;20038;-71
2024/02/10 08:17:13;;;;;;;34.42;5.55;;;;;;;;;;4990045;28;20055;-72
2024/02/10 08:20:19;;;;;;;23.95;5.63;;;;;;;;;;4991118;28;20503;-74
2024/02/10 08:23:23;;;;;;;34.60;5.47;;;;;;;;;;4990861;28;20046;-72
2024/02/10 08:26:28;;;;;;;28.83;5.38;;;;;;;;;;4990786;28;20046;-75
2024/02/10 08:29:33;;;;;;;42.00;5.70;;;;;;;;;;4990219;28;20041;-72
2024/02/10 08:32:37;;;;;;;38.90;5.47;;;;;;;;;;4990856;28;20050;-74
2024/02/10 08:35:42;;;;;;;34.08;6.25;;;;;;;;;;4990719;28;20042;-74
2024/02/10 08:38:47;;;;;;;29.60;5.90;;;16.20;95.20;;;;;;4990554;28;20693;-75
2024/02/10 08:41:51;;;;;;;36.60;5.82;;;;;;;;;;4990547;28;20045;-73
2024/02/10 08:44:55;;;;;;;31.38;6.22;;;;;;;;;;4990612;28;20408;-74
2024/02/10 08:48:00;;;;;;;38.95;6.07;;;;;;;;;;4990851;28;20055;-73
2024/02/10 08:51:04;;;;;;;38.05;6.30;;;;;;;;;;4994306;28;20082;-73
2024/02/10 08:54:12;;;;;;;35.35;6.43;;;;;;;;;;4993275;28;20034;-73
2024/02/10 08:57:16;;;;;;;34.53;6.25;;;;;;;;;;4994214;28;20050;-73
2024/02/10 09:00:21;;;;;;;38.65;6.47;;;;;;;;;;4994207;28;20504;-73
2024/02/10 09:03:25;;;;;;;39.08;6.10;;;;;;;;;;4993088;28;20054;-73
2024/02/10 09:06:30;;;;;;;39.95;7.40;;;;;;;;;;4993160;28;20579;-74
2024/02/10 09:09:35;;;;;;;36.33;6.57;;;;;;;;;;4993926;28;20400;-74
2024/02/10 09:12:39;;;;;;;43.28;5.93;;;;;;;;;;4993122;28;20034;-73
2024/02/10 09:15:44;;;;;;;39.13;6.90;;;;;;;;;;4992705;28;20058;-76
2024/02/10 09:18:48;;;;;;;34.25;5.72;;;;;;;;;;4993835;28;20475;-74
2024/02/10 09:21:57;;;;;;;31.45;5.63;;;;;;;;;;4993746;28;20118;-74
2024/02/10 09:25:03;;;;;;;35.72;5.85;;;;;;;;;;4993828;28;20372;-72
2024/02/10 09:28:07;;;;;;;32.47;5.80;;;;;;;;;;4993499;28;20045;-71
2024/02/10 09:31:15;;;;;;;22.38;5.10;;;;;;;;;;4993777;28;20043;-72
2024/02/10 09:34:20;;;;;;;29.00;5.68;;;;;;;;;;4993776;28;20049;-71
2024/02/10 09:37:24;;;;;;;24.73;5.65;;;;;;;;;;4992421;28;20034;-73
2024/02/10 09:40:28;;;;;;;21.80;4.70;;;;;;;;;;4992520;28;20138;-72
2024/02/10 09:43:36;;;;;;;25.50;4.57;;;15.20;94.90;;;;;;4993085;28;20046;-76
2024/02/10 09:46:42;;;;;;;24.88;5.15;;;;;;;;;;4992928;28;20045;-73
2024/02/10 09:49:49;;;;;;;28.73;5.65;;;16.50;95.00;;;;;;4992574;28;20045;-75
2024/02/10 09:52:55;;;;;;;21.85;5.50;;;;;;;;;;4992537;28;20049;-69
2024/02/10 09:55:59;;;;;;;26.73;4.80;;;;;;;;;;4992826;28;20046;-73
2024/02/10 09:59:10;;;;;;;26.05;5.32;;;16.60;94.10;;;;;;4992862;28;20046;-73
2024/02/10 10:02:15;;;;;;;24.35;3.67;;;;;;;;;;4992127;28;20045;-72
2024/02/10 10:05:20;;;;;;;26.13;4.00;;;;;;;;;;4992609;28;20046;-72
2024/02/10 10:08:24;;;;;;;17.45;3.75;;;;;;;;;;4993049;28;20394;-73
2024/02/10 10:11:30;;;;;;;20.92;3.78;;;;;;;;;;4992998;28;20502;-72
2024/02/10 10:14:36;;;;;;;19.90;3.65;;;14.80;90.80;;;;;;4992927;28;20046;-73
2024/02/10 10:17:40;;;;;;;18.20;3.00;;;;;;;;;;4992202;28;20061;-72
2024/02/10 10:20:48;;;;;;;20.75;4.13;;;17.80;93.30;;;;;;4992803;28;20039;-72
2024/02/10 10:23:55;;;;;;;15.63;3.80;;;;;;;;;;4992078;28;20053;-72
2024/02/10 10:27:02;;;;;;;22.65;3.58;;;;;;;;;;4991428;28;20046;-72
2024/02/10 10:30:12;;;;;;;18.80;3.85;;;16.20;96.10;;;;;;4992556;28;20069;-72
2024/02/10 10:33:20;;;;;;;24.77;3.60;;;16.00;96.40;;;;;;4992489;28;20065;-72
2024/02/10 10:36:28;;;;;;;17.50;3.65;;;15.90;96.90;;;;;;4992124;28;20045;-72
2024/02/10 10:39:36;;;;;;;24.88;4.40;;;15.90;97.40;;;;;;4992194;28;20042;-73
2024/02/10 10:42:41;;;;;;;45.75;5.65;;;;;;;;;;4992209;28;20057;-73
2024/02/10 10:45:46;;;;;;;25.92;4.75;;;16.90;96.40;;;;;;4992281;28;20071;-74
2024/02/10 10:48:50;;;;;;;34.63;5.28;;;;;;;;;;4992360;28;20391;-70
2024/02/10 10:52:01;;;;;;;36.72;5.15;;;16.00;95.40;;;;;;4992096;28;20054;-73
2024/02/10 10:55:09;;;;;;;28.48;5.70;;;17.70;95.20;;;;;;4992075;28;20065;-76
2024/02/10 10:58:21;;;;;;;31.05;5.30;;;15.90;95.40;;;;;;4991250;28;20045;-73
2024/02/10 11:01:27;;;;;;;37.65;4.97;;;15.90;95.50;;;;;;4990868;28;20053;-74
2024/02/10 11:04:33;;;;;;;33.05;4.60;;;15.90;95.60;;;;;;4992096;28;20053;-73
2024/02/10 11:07:38;;;;;;;24.55;5.57;;;;;;;;;;4980117;28;20057;-71
2024/02/10 11:10:44;;;;;;;37.90;5.85;;;;;;;;;;4990706;28;20046;-72
2024/02/10 11:13:48;;;;;;;36.70;5.75;;;;;;;;;;4991174;28;20050;-71
2024/02/10 11:16:53;;;;;;;28.40;5.28;;;;;;;;;;4991582;28;20050;-72
2024/02/10 11:20:03;;;;;;;43.97;7.22;;;15.60;97.40;;;;;;4991328;28;20038;-70
2024/02/10 11:23:20;;;;;;;35.47;6.50;;;15.60;98.00;;;;;;4990712;28;20061;-71
2024/02/10 11:26:26;;;;;;;36.35;6.15;;;15.60;98.00;;;;;;4991822;28;20058;-71
2024/02/10 11:29:31;;;;;;;42.95;6.95;;;;;;;;;;4990905;28;20057;-74
2024/02/10 11:32:37;;;;;;;44.42;6.75;;;;;;;;;;4991578;28;20402;-72
2024/02/10 11:35:41;;;;;;;42.97;7.43;;;;;;;;;;4979692;28;20152;-75
2024/02/10 11:38:46;;;;;;;39.88;7.57;;;15.50;99.70;;;;;;4990577;28;20046;-79
2024/02/10 11:42:00;;;;;;;38.13;7.32;;;15.30;99.90;;;;;;4990932;28;20394;-72
2024/02/10 11:45:09;;;;;;;36.85;7.72;;;;;;;;;;4979388;28;20065;-71
2024/02/10 11:48:13;;;;;;;45.08;7.63;;;;;;;;;;4990085;28;20049;-72
2024/02/10 11:51:22;;;;;;;55.28;8.95;;;;;;;;;;4990545;28;20054;-72
2024/02/10 11:54:27;;;;;;;50.05;8.82;;;;;;;;;;4990376;28;20046;-71
2024/02/10 11:57:31;;;;;;;57.42;9.65;;;;;;;;;;4991449;28;20065;-72
2024/02/10 12:00:35;;;;;;;70.53;10.98;;;;;;;;;;4991681;28;20034;-72
2024/02/10 12:03:43;;;;;;;54.13;10.23;;;15.00;99.90;;;;;;4990709;28;20578;-71
2024/02/10 12:06:51;;;;;;;63.20;9.63;;;;;;;;;;4990654;28;20045;-72
2024/02/10 12:09:58;;;;;;;58.53;9.38;;;15.00;99.90;;;;;;4991398;28;20128;-73
2024/02/10 12:13:02;;;;;;;69.82;10.15;;;;;;;;;;4991466;28;20053;-71
2024/02/10 12:16:10;;;;;;;54.00;9.18;;;12.60;99.90;;;;;;4990730;28;20058;-73
2024/02/10 12:19:15;;;;;;;51.45;9.13;;;;;;;;;;4990419;28;20042;-72
2024/02/10 12:22:21;;;;;;;40.90;8.13;;;;;;;;;;4981024;28;20502;-72
2024/02/10 12:25:25;;;;;;;40.85;8.68;;;;;;;;;;4982951;28;20049;-73
2024/02/10 12:28:35;;;;;;;50.33;7.22;;;15.00;99.90;;;;;;4994732;28;20040;-72
2024/02/10 12:31:39;;;;;;;32.28;7.25;;;;;;;;;;4993987;28;20049;-73
2024/02/10 12:34:44;;;;;;;40.70;7.35;;;;;;;;;;4994707;28;20038;-74
2024/02/10 12:37:48;;;;;;;30.48;6.95;;;;;;;;;;4994911;28;20046;-72
2024/02/10 12:40:53;;;;;;;39.95;8.07;;;14.90;99.90;;;;;;4994487;28;20199;-73
2024/02/10 12:43:58;;;;;;;33.95;6.68;;;;;;;;;;4994335;28;20069;-73
2024/02/10 12:47:02;;;;;;;43.00;7.32;;;;;;;;;;4994628;28;20042;-72
2024/02/10 12:50:07;;;;;;;43.03;7.97;;;;;;;;;;4994656;28;20502;-72
2024/02/10 12:53:14;;;;;;;30.20;5.97;;;14.80;99.90;;;;;;4993907;28;20026;-74
2024/02/10 12:56:21;;;;;;;22.00;4.80;;;;;;;;;;4994147;28;20049;-73
2024/02/10 12:59:25;;;;;;;35.22;5.53;;;;;;;;;;4994454;28;20050;-75
2024/02/10 13:02:29;;;;;;;35.53;7.13;;;;;;;;;;4994196;28;20050;-73
2024/02/10 13:05:34;;;;;;;41.88;8.00;;;;;;;;;;4994262;28;20054;-73
2024/02/10 13:08:39;;;;;;;33.88;6.70;;;;;;;;;;4993376;28;20046;-72
2024/02/10 13:11:43;;;;;;;35.22;5.57;;;;;;;;;;4993468;28;20055;-73
2024/02/10 13:14:48;;;;;;;24.90;6.07;;;;;;;;;;4993305;28;20038;-74
2024/02/10 13:17:53;;;;;;;27.80;4.95;;;14.70;99.90;;;;;;4993263;28;20046;-73
2024/02/10 13:20:58;;;;;;;20.90;3.20;;;;;;;;;;4993275;28;20061;-76
2024/02/10 13:24:05;;;;;;;21.17;4.00;;;;;;;;;;4992908;28;20057;-73
2024/02/10 13:27:09;;;;;;;19.10;3.13;;;;;;;;;;4993756;28;20035;-74
2024/02/10 13:30:13;;;;;;;13.02;3.30;;;;;;;;;;4993606;28;20051;-73
2024/02/10 13:33:18;;;;;;;17.90;4.95;;;;;;;;;;4993021;28;20042;-74
2024/02/10 14:03:04;;;;;;;15.10;5.57;;;;;;;;;;4993099;28;20059;-74
2024/02/10 14:06:09;;;;;;;17.15;5.88;;;;;;;;;;4993048;28;20049;-73
2024/02/10 14:09:17;;;;;;;19.05;4.80;;;;;;;;;;4992994;28;20038;-73
2024/02/10 14:12:21;;;;;;;18.27;3.53;;;;;;;;;;4993123;28;20042;-75
2024/02/10 14:15:29;;;;;;;17.80;4.28;;;;;;;;;;4991745;28;20042;-73
2024/02/10 14:18:36;;;;;;;22.13;4.60;;;;;;;;;;4992689;28;20046;-72
2024/02/10 14:21:43;;;;;;;32.83;4.82;;;;;;;;;;4992885;28;20046;-73
2024/02/10 14:24:47;;;;;;;20.42;3.92;;;;;;;;;;4992382;28;20054;-73
2024/02/10 14:27:58;;;;;;;19.20;5.05;;;14.60;99.90;;;;;;4992817;28;20049;-73
2024/02/10 14:31:02;;;;;;;15.70;3.03;;;;;;;;;;4992776;28;20061;-72
2024/02/10 14:34:14;;;;;;;15.30;2.85;;;;;;;;;;4992640;28;20105;-72
2024/02/10 14:37:40;;;;;;;17.50;3.25;;;;;;;;;;4992352;28;20039;-75
2024/02/10 14:40:44;;;;;;;19.02;3.65;;;;;;;;;;4992227;28;20065;-72
2024/02/10 14:43:49;;;;;;;14.75;3.88;;;;;;;;;;4992119;28;20058;-73
2024/02/10 14:46:58;;;;;;;14.77;4.47;;;;;;;;;;4990555;28;20050;-71
2024/02/10 14:50:03;;;;;;;13.05;3.33;;;;;;;;;;4992482;28;20042;-72
2024/02/10 14:53:07;;;;;;;11.13;3.42;;;;;;;;;;4992013;28;20053;-72
2024/02/10 14:56:21;;;;;;;12.00;3.00;;;14.60;99.90;;;;;;4991978;28;20379;-72
2024/02/10 14:59:28;;;;;;;11.57;2.97;;;;;;;;;;4980042;28;20041;-70
2024/02/10 15:02:32;;;;;;;14.75;3.00;;;;;;;;;;4991033;28;20034;-71
2024/02/10 15:05:41;;;;;;;12.38;2.65;;;14.70;99.90;;;;;;4991245;28;20042;-72
2024/02/10 15:08:49;;;;;;;8.45;2.78;;;14.60;99.90;;;;;;4990722;28;20099;-72
2024/02/10 15:11:53;;;;;;;14.40;3.60;;;;;;;;;;4990168;28;20041;-72
2024/02/10 15:14:58;;;;;;;17.38;4.05;;;;;;;;;;4990610;28;20037;-72
2024/02/10 15:18:04;;;;;;;18.17;5.35;;;;;;;;;;4990922;28;20053;-71
2024/02/10 15:21:08;;;;;;;19.00;6.20;;;;;;;;;;4990424;28;20047;-71
2024/02/10 15:24:12;;;;;;;44.30;16.98;;;;;;;;;;4991266;28;20046;-71
2024/02/10 15:27:18;;;;;;;20.13;7.28;;;;;;;;;;4991578;28;20065;-71
2024/02/10 15:30:22;;;;;;;18.02;5.28;;;;;;;;;;4990687;28;20049;-71
2024/02/10 15:33:27;;;;;;;17.50;7.30;;;;;;;;;;4991760;28;20041;-73
2024/02/10 15:36:36;;;;;;;20.90;5.32;;;;;;;;;;4991388;28;20042;-73
2024/02/10 15:39:40;;;;;;;19.55;5.78;;;14.00;99.90;;;;;;4990820;28;20051;-73
2024/02/10 15:42:45;;;;;;;19.70;7.07;;;;;;;;;;4991459;28;20065;-73
2024/02/10 15:45:49;;;;;;;23.23;5.35;;;;;;;;;;4990695;28;20547;-70
2024/02/10 15:48:54;;;;;;;21.42;6.40;;;;;;;;;;4990762;28;20356;-73
2024/02/10 15:51:58;;;;;;;19.08;6.05;;;;;;;;;;4979532;28;20046;-74
2024/02/10 15:55:03;;;;;;;21.92;6.45;;;;;;;;;;4991228;28;20046;-71
2024/02/10 15:58:16;;;;;;;68.97;31.50;;;13.40;99.90;;;;;;4994563;28;20043;-70
2024/02/10 16:01:21;;;;;;;78.28;38.10;;;13.60;99.90;;;;;;4994497;28;20042;-73
2024/02/10 16:04:26;;;;;;;34.78;15.30;;;;;;;;;;4994172;28;20057;-71
2024/02/10 16:07:30;;;;;;;71.13;30.90;;;;;;;;;;4995224;28;20049;-72
2024/02/10 16:10:34;;;;;;;23.45;6.65;;;;;;;;;;4982965;28;20623;-72
2024/02/10 16:13:39;;;;;;;43.42;21.48;;;;;;;;;;4994889;28;20038;-73
2024/02/10 16:16:44;;;;;;;70.65;33.25;;;;;;;;;;4993860;28;20061;-71
2024/02/10 16:19:53;;;;;;;45.45;20.67;;;13.40;99.90;;;;;;4993994;28;20045;-72
2024/02/10 16:22:57;;;;;;;60.03;29.52;;;13.20;99.90;;;;;;4994050;28;20069;-71
2024/02/10 16:26:01;;;;;;;102.82;45.20;;;13.40;99.90;;;;;;4994887;28;20041;-71
2024/02/10 16:29:07;;;;;;;56.42;23.75;;;12.50;99.90;;;;;;4994496;28;20041;-71
2024/02/10 16:32:11;;;;;;;42.30;17.58;;;13.20;99.90;;;;;;4994750;28;20053;-71
2024/02/10 16:35:29;;;;;;;56.30;28.27;;;13.40;99.90;;;;;;4994229;28;20118;-71
2024/02/10 16:38:34;;;;;;;33.80;15.88;;;13.30;99.90;;;;;;4993976;28;20053;-71
2024/02/10 16:41:37;;;;;;;21.38;9.63;;;13.40;99.90;;;;;;4993624;28;20065;-71
2024/02/10 16:44:41;;;;;;;10.18;5.75;;;13.30;99.90;;;;;;4994277;28;20057;-71
2024/02/10 16:47:45;;;;;;;12.48;5.43;;;13.20;99.90;;;;;;4993837;28;20395;-73
2024/02/10 16:50:50;;;;;;;19.88;6.78;;;11.20;99.90;;;;;;4994309;28;20505;-73
2024/02/10 16:53:56;;;;;;;42.33;18.92;;;13.30;99.90;;;;;;4994642;28;20049;-73
2024/02/10 16:57:00;;;;;;;17.38;6.28;;;;;;;;;;4993387;28;20459;-71
2024/02/10 17:00:18;;;;;;;8.25;4.97;;;13.30;99.90;;;;;;4994401;28;20035;-72
2024/02/10 17:03:24;;;;;;;12.95;5.20;;;11.90;99.90;;;;;;4994273;28;20057;-71
2024/02/10 17:06:30;;;;;;;10.85;5.20;;;13.30;99.90;;;;;;4993422;28;20077;-71
2024/02/10 17:09:34;;;;;;;10.93;4.20;;;13.10;99.90;;;;;;4993643;28;20049;-71
2024/02/10 17:12:38;;;;;;;15.93;6.40;;;;;;;;;;4993977;28;20049;-72
2024/02/10 17:15:43;;;;;;;17.50;9.25;;;;;;;;;;4993652;28;20058;-72
2024/02/10 17:18:47;;;;;;;21.30;11.35;;;;;;;;;;4993873;28;20038;-73
2024/02/10 17:21:52;;;;;;;15.20;4.72;;;13.10;99.90;;;;;;4993260;28;20053;-72
2024/02/10 17:24:56;;;;;;;18.15;10.30;;;13.10;99.90;;;;;;4993546;28;20054;-71
2024/02/10 17:28:00;;;;;;;15.90;8.10;;;13.40;99.90;;;;;;4994027;28;20045;-72
2024/02/10 17:31:04;;;;;;;17.50;6.78;;;;;;;;;;4993798;28;20038;-72
2024/02/10 17:34:09;;;;;;;13.38;5.50;;;;;;;;;;4993712;28;20493;-72
2024/02/10 17:37:14;;;;;;;18.45;8.70;;;;;;;;;;4992724;28;20502;-72
2024/02/10 17:40:18;;;;;;;14.02;6.80;;;;;;;;;;4992469;28;20490;-72
2024/02/10 17:43:23;;;;;;;18.02;5.13;;;;;;;;;;4981501;28;20427;-72
2024/02/10 17:46:29;;;;;;;17.35;4.07;;;;;;;;;;4993389;28;20047;-72
2024/02/10 17:49:40;;;;;;;26.70;8.98;;;;;;;;;;4993402;28;20046;-72
2024/02/10 17:52:47;;;;;;;10.43;3.53;;;;;;;;;;4992312;28;20045;-72
2024/02/10 17:55:54;;;;;;;16.27;5.28;;;13.70;99.90;;;;;;4993187;28;20282;-72
2024/02/10 17:59:02;;;;;;;18.52;6.00;;;;;;;;;;4992170;28;20041;-72
2024/02/10 18:02:08;;;;;;;23.95;9.80;;;;;;;;;;4993274;28;20049;-73
2024/02/10 18:05:12;;;;;;;37.22;18.85;;;;;;;;;;4992732;28;20079;-72